DLH430 KSAN-KPDX
Flight info
| Callsign | DLH430 |
|---|---|
| Flight time | 1h 33m |
| Altitude | 38000 |
| Route | PADRZ2 EHF DNOLD GALLO TMBRS4 |
| Aircraft | A346/H-SDE2E3FGHIJ3J4J5M1RWXY/LB1D1 |
Departure
| Time | 2026-05-08 02:32 |
|---|---|
| Airport | San Diego International Airport (KSAN) |
Arrival
| Time | 2026-05-08 04:05 |
|---|---|
| Airport | Portland International Airport (KPDX) |
| Time | Latitude | Longitude | Altitude | Speed | Heading |
|---|---|---|---|---|---|
| 2026-05-08 01:56 | 32.73266 | -117.20708 | 28 ft | 0 kts | 191° |
| 2026-05-08 02:19 | 32.73298 | -117.20700 | 28 ft | 0 kts | 191° |
| 2026-05-08 02:19 | 32.73323 | -117.20693 | 28 ft | 0 kts | 201° |
| 2026-05-08 02:19 | 32.73335 | -117.20679 | 28 ft | 0 kts | 242° |
| 2026-05-08 02:20 | 32.73338 | -117.20658 | 28 ft | 0 kts | 281° |
| 2026-05-08 02:20 | 32.73336 | -117.20650 | 29 ft | 0 kts | 288° |
| 2026-05-08 02:23 | 32.73339 | -117.20658 | 28 ft | 3 kts | 294° |
| 2026-05-08 02:24 | 32.73360 | -117.20680 | 29 ft | 6 kts | 339° |
| 2026-05-08 02:24 | 32.73413 | -117.20687 | 29 ft | 9 kts | 358° |
| 2026-05-08 02:24 | 32.73490 | -117.20687 | 29 ft | 13 kts | 2° |
| 2026-05-08 02:24 | 32.73578 | -117.20642 | 28 ft | 16 kts | 41° |
| 2026-05-08 02:25 | 32.73605 | -117.20540 | 29 ft | 9 kts | 88° |
| 2026-05-08 02:25 | 32.73606 | -117.20449 | 29 ft | 13 kts | 93° |
| 2026-05-08 02:25 | 32.73588 | -117.20343 | 28 ft | 13 kts | 105° |
| 2026-05-08 02:25 | 32.73562 | -117.20236 | 31 ft | 13 kts | 106° |
| 2026-05-08 02:26 | 32.73537 | -117.20131 | 31 ft | 14 kts | 106° |
| 2026-05-08 02:26 | 32.73506 | -117.20004 | 31 ft | 18 kts | 106° |
| 2026-05-08 02:26 | 32.73469 | -117.19851 | 32 ft | 20 kts | 106° |
| 2026-05-08 02:26 | 32.73428 | -117.19685 | 31 ft | 22 kts | 106° |
| 2026-05-08 02:27 | 32.73387 | -117.19513 | 32 ft | 19 kts | 107° |
| 2026-05-08 02:27 | 32.73348 | -117.19355 | 30 ft | 22 kts | 106° |
| 2026-05-08 02:27 | 32.73302 | -117.19164 | 29 ft | 26 kts | 106° |
| 2026-05-08 02:27 | 32.73251 | -117.18955 | 31 ft | 27 kts | 106° |
| 2026-05-08 02:28 | 32.73199 | -117.18739 | 31 ft | 27 kts | 106° |
| 2026-05-08 02:28 | 32.73145 | -117.18516 | 30 ft | 30 kts | 106° |
| 2026-05-08 02:28 | 32.73086 | -117.18273 | 30 ft | 31 kts | 106° |
| 2026-05-08 02:28 | 32.73033 | -117.18067 | 30 ft | 17 kts | 118° |
| 2026-05-08 02:29 | 32.72946 | -117.17973 | 27 ft | 18 kts | 143° |
| 2026-05-08 02:29 | 32.72890 | -117.17851 | 29 ft | 16 kts | 79° |
| 2026-05-08 02:29 | 32.72933 | -117.17722 | 29 ft | 15 kts | 67° |
| 2026-05-08 02:29 | 32.72945 | -117.17690 | 28 ft | 0 kts | 67° |
| 2026-05-08 02:30 | 32.72946 | -117.17687 | 27 ft | 1 kts | 67° |
| 2026-05-08 02:30 | 32.72953 | -117.17665 | 29 ft | 5 kts | 69° |
| 2026-05-08 02:30 | 32.72972 | -117.17608 | 28 ft | 9 kts | 62° |
| 2026-05-08 02:30 | 32.73007 | -117.17593 | 29 ft | 6 kts | 337° |
| 2026-05-08 02:31 | 32.73036 | -117.17645 | 28 ft | 10 kts | 288° |
| 2026-05-08 02:31 | 32.73041 | -117.17666 | 28 ft | 1 kts | 286° |
| 2026-05-08 02:31 | 32.73068 | -117.17774 | 28 ft | 43 kts | 286° |
| 2026-05-08 02:31 | 32.73215 | -117.18389 | 31 ft | 109 kts | 285° |
| 2026-05-08 02:32 | 32.73481 | -117.19481 | 33 ft | 164 kts | 286° |
| 2026-05-08 02:32 | 32.73812 | -117.20881 | 428 ft | 180 kts | 286° |
| 2026-05-08 02:32 | 32.74247 | -117.22275 | 1154 ft | 182 kts | 300° |
| 2026-05-08 02:32 | 32.74962 | -117.23532 | 1871 ft | 185 kts | 307° |
| 2026-05-08 02:33 | 32.75762 | -117.24768 | 2436 ft | 194 kts | 307° |
| 2026-05-08 02:33 | 32.76586 | -117.26117 | 2852 ft | 210 kts | 306° |
| 2026-05-08 02:33 | 32.77464 | -117.27589 | 3252 ft | 227 kts | 306° |
| 2026-05-08 02:33 | 32.78410 | -117.29201 | 3615 ft | 247 kts | 305° |
| 2026-05-08 02:34 | 32.79411 | -117.30932 | 4178 ft | 259 kts | 304° |
| 2026-05-08 02:34 | 32.80473 | -117.32665 | 5012 ft | 259 kts | 307° |
| 2026-05-08 02:34 | 32.81572 | -117.34364 | 5848 ft | 260 kts | 308° |
| 2026-05-08 02:34 | 32.82692 | -117.36085 | 6618 ft | 265 kts | 307° |
| 2026-05-08 02:35 | 32.83828 | -117.37842 | 7347 ft | 270 kts | 308° |
| 2026-05-08 02:35 | 32.84982 | -117.39635 | 8147 ft | 275 kts | 308° |
| 2026-05-08 02:35 | 32.86161 | -117.41465 | 8937 ft | 281 kts | 309° |
| 2026-05-08 02:35 | 32.87361 | -117.43328 | 9751 ft | 286 kts | 310° |
| 2026-05-08 02:36 | 32.88587 | -117.45229 | 10502 ft | 295 kts | 310° |
| 2026-05-08 02:36 | 32.89876 | -117.47222 | 11002 ft | 312 kts | 310° |
| 2026-05-08 02:36 | 32.91236 | -117.49325 | 11429 ft | 330 kts | 309° |
| 2026-05-08 02:36 | 32.92653 | -117.51525 | 11883 ft | 348 kts | 309° |
| 2026-05-08 02:37 | 32.94164 | -117.53877 | 12276 ft | 366 kts | 309° |
| 2026-05-08 02:37 | 32.95750 | -117.56349 | 12667 ft | 385 kts | 309° |
| 2026-05-08 02:37 | 32.97408 | -117.58936 | 13200 ft | 397 kts | 309° |
| 2026-05-08 02:37 | 32.99091 | -117.61568 | 13976 ft | 402 kts | 309° |
| 2026-05-08 02:38 | 33.00797 | -117.64236 | 14706 ft | 406 kts | 309° |
| 2026-05-08 02:38 | 33.02518 | -117.66928 | 15447 ft | 410 kts | 309° |
| 2026-05-08 02:38 | 33.04259 | -117.69635 | 16204 ft | 413 kts | 310° |
| 2026-05-08 02:38 | 33.06130 | -117.72248 | 16975 ft | 415 kts | 314° |
| 2026-05-08 02:39 | 33.08168 | -117.74711 | 17753 ft | 418 kts | 318° |
| 2026-05-08 02:39 | 33.10349 | -117.77021 | 18494 ft | 421 kts | 321° |
| 2026-05-08 02:39 | 33.12585 | -117.79296 | 19158 ft | 424 kts | 321° |
| 2026-05-08 02:39 | 33.14850 | -117.81585 | 19815 ft | 428 kts | 321° |
| 2026-05-08 02:40 | 33.17131 | -117.83897 | 20475 ft | 432 kts | 321° |
| 2026-05-08 02:40 | 33.19427 | -117.86231 | 21140 ft | 435 kts | 321° |
| 2026-05-08 02:40 | 33.21772 | -117.88553 | 21804 ft | 439 kts | 322° |
| 2026-05-08 02:40 | 33.24148 | -117.90865 | 22445 ft | 442 kts | 322° |
| 2026-05-08 02:41 | 33.26552 | -117.93197 | 23083 ft | 446 kts | 322° |
| 2026-05-08 02:41 | 33.28973 | -117.95551 | 23700 ft | 450 kts | 322° |
| 2026-05-08 02:41 | 33.31406 | -117.97921 | 24226 ft | 454 kts | 322° |
| 2026-05-08 02:41 | 33.33860 | -118.00318 | 24739 ft | 457 kts | 322° |
| 2026-05-08 02:42 | 33.36331 | -118.02734 | 25284 ft | 460 kts | 322° |
| 2026-05-08 02:42 | 33.38818 | -118.05168 | 25806 ft | 463 kts | 322° |
| 2026-05-08 02:42 | 33.41319 | -118.07619 | 26293 ft | 467 kts | 322° |
| 2026-05-08 02:42 | 33.43845 | -118.10095 | 26790 ft | 470 kts | 322° |
| 2026-05-08 02:43 | 33.46388 | -118.12592 | 27307 ft | 474 kts | 322° |
| 2026-05-08 02:43 | 33.48944 | -118.15104 | 27796 ft | 477 kts | 322° |
| 2026-05-08 02:43 | 33.51517 | -118.17634 | 28402 ft | 477 kts | 323° |
| 2026-05-08 02:43 | 33.54134 | -118.20053 | 29160 ft | 474 kts | 325° |
| 2026-05-08 02:44 | 33.56835 | -118.22298 | 29958 ft | 470 kts | 328° |
| 2026-05-08 02:44 | 33.59608 | -118.24355 | 30618 ft | 467 kts | 331° |
| 2026-05-08 02:44 | 33.62454 | -118.26226 | 31212 ft | 465 kts | 334° |
| 2026-05-08 02:44 | 33.65320 | -118.27896 | 31781 ft | 464 kts | 336° |
| 2026-05-08 02:45 | 33.68246 | -118.29514 | 32356 ft | 462 kts | 336° |
| 2026-05-08 02:45 | 33.71171 | -118.31114 | 32960 ft | 461 kts | 336° |
| 2026-05-08 02:45 | 33.74084 | -118.32710 | 33538 ft | 460 kts | 336° |
| 2026-05-08 02:45 | 33.76994 | -118.34292 | 34093 ft | 458 kts | 338° |
| 2026-05-08 02:46 | 33.79931 | -118.35789 | 34585 ft | 457 kts | 338° |
| 2026-05-08 02:46 | 33.82862 | -118.37245 | 35083 ft | 455 kts | 338° |
| 2026-05-08 02:46 | 33.85783 | -118.38695 | 35569 ft | 453 kts | 338° |
| 2026-05-08 02:46 | 33.88689 | -118.40152 | 36067 ft | 451 kts | 338° |
| 2026-05-08 02:47 | 33.91580 | -118.41611 | 36520 ft | 450 kts | 338° |
| 2026-05-08 02:47 | 33.94473 | -118.43033 | 36909 ft | 449 kts | 339° |
| 2026-05-08 02:47 | 33.97422 | -118.44292 | 37251 ft | 450 kts | 342° |
| 2026-05-08 02:47 | 34.00421 | -118.45362 | 37558 ft | 451 kts | 345° |
| 2026-05-08 02:48 | 34.03477 | -118.46245 | 37809 ft | 453 kts | 348° |
| 2026-05-08 02:48 | 34.06577 | -118.46933 | 38036 ft | 454 kts | 351° |
| 2026-05-08 02:48 | 34.12860 | -118.47949 | 38003 ft | 455 kts | 352° |
| 2026-05-08 02:49 | 34.19103 | -118.48896 | 38007 ft | 455 kts | 352° |
| 2026-05-08 02:49 | 34.25392 | -118.49856 | 38008 ft | 456 kts | 352° |
| 2026-05-08 02:50 | 34.31694 | -118.50825 | 38037 ft | 456 kts | 352° |
| 2026-05-08 02:50 | 34.37996 | -118.51797 | 38027 ft | 456 kts | 352° |
| 2026-05-08 02:51 | 34.44311 | -118.52772 | 38028 ft | 456 kts | 352° |
| 2026-05-08 02:51 | 34.50611 | -118.53747 | 38018 ft | 456 kts | 352° |
| 2026-05-08 02:52 | 34.56904 | -118.54723 | 38037 ft | 456 kts | 352° |
| 2026-05-08 02:52 | 34.63163 | -118.55694 | 38039 ft | 456 kts | 352° |
| 2026-05-08 02:53 | 34.69441 | -118.56671 | 38047 ft | 454 kts | 352° |
| 2026-05-08 02:53 | 34.75707 | -118.57646 | 38050 ft | 453 kts | 352° |
| 2026-05-08 02:54 | 34.81971 | -118.58622 | 38047 ft | 453 kts | 352° |
| 2026-05-08 02:54 | 34.88228 | -118.59600 | 38092 ft | 453 kts | 352° |
| 2026-05-08 02:55 | 34.97501 | -118.61895 | 38124 ft | 453 kts | 341° |
| 2026-05-08 02:56 | 35.03292 | -118.64925 | 38129 ft | 454 kts | 332° |
| 2026-05-08 02:56 | 35.08563 | -118.69082 | 38124 ft | 456 kts | 322° |
| 2026-05-08 02:57 | 35.13488 | -118.74002 | 38114 ft | 457 kts | 320° |
| 2026-05-08 02:57 | 35.18374 | -118.78988 | 38046 ft | 457 kts | 320° |
| 2026-05-08 02:58 | 35.23263 | -118.83971 | 38031 ft | 457 kts | 320° |
| 2026-05-08 02:58 | 35.28160 | -118.88963 | 38026 ft | 458 kts | 320° |
| 2026-05-08 02:59 | 35.33056 | -118.93959 | 38021 ft | 458 kts | 320° |
| 2026-05-08 02:59 | 35.37924 | -118.98934 | 38013 ft | 458 kts | 320° |
| 2026-05-08 03:00 | 35.42888 | -119.03851 | 38017 ft | 458 kts | 323° |
| 2026-05-08 03:00 | 35.48253 | -119.08111 | 38015 ft | 459 kts | 330° |
| 2026-05-08 03:01 | 35.53989 | -119.11547 | 38018 ft | 459 kts | 337° |
| 2026-05-08 03:01 | 35.60016 | -119.14152 | 38023 ft | 460 kts | 342° |
| 2026-05-08 03:02 | 35.66137 | -119.16472 | 38024 ft | 460 kts | 342° |
| 2026-05-08 03:02 | 35.72263 | -119.18789 | 38028 ft | 460 kts | 342° |
| 2026-05-08 03:03 | 35.78346 | -119.21099 | 38027 ft | 460 kts | 342° |
| 2026-05-08 03:03 | 35.84471 | -119.23432 | 38029 ft | 461 kts | 342° |
| 2026-05-08 03:04 | 35.90602 | -119.25773 | 38026 ft | 461 kts | 342° |
| 2026-05-08 03:04 | 35.96728 | -119.28117 | 38028 ft | 460 kts | 342° |
| 2026-05-08 03:05 | 36.02843 | -119.30459 | 38023 ft | 461 kts | 342° |
| 2026-05-08 03:05 | 36.07933 | -119.32412 | 38027 ft | 461 kts | 342° |
| 2026-05-08 03:06 | 36.14064 | -119.34769 | 38030 ft | 461 kts | 342° |
| 2026-05-08 03:06 | 36.21192 | -119.37513 | 38039 ft | 461 kts | 342° |
| 2026-05-08 03:07 | 36.26332 | -119.39495 | 38036 ft | 461 kts | 342° |
| 2026-05-08 03:07 | 36.32463 | -119.41863 | 38038 ft | 461 kts | 342° |
| 2026-05-08 03:08 | 36.38558 | -119.44221 | 38037 ft | 461 kts | 342° |
| 2026-05-08 03:08 | 36.44690 | -119.46595 | 38033 ft | 462 kts | 341° |
| 2026-05-08 03:09 | 36.50829 | -119.48978 | 38026 ft | 462 kts | 341° |
| 2026-05-08 03:09 | 36.56969 | -119.51366 | 38015 ft | 462 kts | 341° |
| 2026-05-08 03:10 | 36.63107 | -119.53756 | 38020 ft | 462 kts | 341° |
| 2026-05-08 03:10 | 36.69233 | -119.56144 | 38023 ft | 461 kts | 341° |
| 2026-05-08 03:11 | 36.75353 | -119.58536 | 38024 ft | 461 kts | 341° |
| 2026-05-08 03:11 | 36.81476 | -119.60933 | 38026 ft | 461 kts | 341° |
| 2026-05-08 03:12 | 36.87598 | -119.63333 | 38025 ft | 461 kts | 341° |
| 2026-05-08 03:12 | 36.93682 | -119.65723 | 38021 ft | 461 kts | 341° |
| 2026-05-08 03:13 | 36.99799 | -119.68128 | 38021 ft | 461 kts | 341° |
| 2026-05-08 03:13 | 37.05922 | -119.70541 | 38028 ft | 462 kts | 341° |
| 2026-05-08 03:14 | 37.12064 | -119.72965 | 38024 ft | 462 kts | 341° |
| 2026-05-08 03:14 | 37.18191 | -119.75387 | 38034 ft | 462 kts | 341° |
| 2026-05-08 03:15 | 37.24323 | -119.77815 | 38042 ft | 462 kts | 341° |
| 2026-05-08 03:15 | 37.30456 | -119.80248 | 38053 ft | 462 kts | 341° |
| 2026-05-08 03:16 | 37.36582 | -119.82682 | 38067 ft | 462 kts | 341° |
| 2026-05-08 03:16 | 37.42671 | -119.85105 | 38047 ft | 461 kts | 341° |
| 2026-05-08 03:17 | 37.48796 | -119.87547 | 38055 ft | 461 kts | 341° |
| 2026-05-08 03:17 | 37.54913 | -119.89991 | 38070 ft | 461 kts | 341° |
| 2026-05-08 03:18 | 37.61036 | -119.92441 | 38081 ft | 461 kts | 341° |
| 2026-05-08 03:18 | 37.67155 | -119.94893 | 38065 ft | 461 kts | 341° |
| 2026-05-08 03:19 | 37.73274 | -119.97350 | 38066 ft | 461 kts | 341° |
| 2026-05-08 03:19 | 37.79361 | -119.99797 | 38080 ft | 461 kts | 341° |
| 2026-05-08 03:20 | 37.85473 | -120.02260 | 38087 ft | 461 kts | 341° |
| 2026-05-08 03:20 | 37.91591 | -120.04730 | 38097 ft | 461 kts | 341° |
| 2026-05-08 03:21 | 37.97703 | -120.07200 | 38084 ft | 461 kts | 341° |
| 2026-05-08 03:21 | 38.03805 | -120.09672 | 38098 ft | 461 kts | 341° |
| 2026-05-08 03:22 | 38.09910 | -120.12149 | 38093 ft | 461 kts | 341° |
| 2026-05-08 03:22 | 38.16016 | -120.14630 | 38113 ft | 460 kts | 341° |
| 2026-05-08 03:23 | 38.22114 | -120.17113 | 38109 ft | 460 kts | 341° |
| 2026-05-08 03:23 | 38.28225 | -120.19606 | 38122 ft | 460 kts | 341° |
| 2026-05-08 03:24 | 38.34368 | -120.22115 | 38143 ft | 460 kts | 341° |
| 2026-05-08 03:24 | 38.40423 | -120.24594 | 38151 ft | 460 kts | 341° |
| 2026-05-08 03:25 | 38.46513 | -120.27091 | 38148 ft | 460 kts | 341° |
| 2026-05-08 03:25 | 38.52601 | -120.29591 | 38139 ft | 459 kts | 341° |
| 2026-05-08 03:26 | 38.58679 | -120.32093 | 38150 ft | 459 kts | 340° |
| 2026-05-08 03:26 | 38.64763 | -120.34601 | 38147 ft | 459 kts | 340° |
| 2026-05-08 03:27 | 38.70848 | -120.37114 | 38152 ft | 459 kts | 340° |
| 2026-05-08 03:27 | 38.76924 | -120.39627 | 38153 ft | 459 kts | 340° |
| 2026-05-08 03:28 | 38.83010 | -120.42149 | 38139 ft | 459 kts | 340° |
| 2026-05-08 03:28 | 38.89089 | -120.44673 | 38136 ft | 459 kts | 340° |
| 2026-05-08 03:29 | 38.95165 | -120.47200 | 38136 ft | 459 kts | 340° |
| 2026-05-08 03:29 | 39.01236 | -120.49730 | 38155 ft | 459 kts | 340° |
| 2026-05-08 03:30 | 39.10290 | -120.53511 | 38193 ft | 457 kts | 340° |
| 2026-05-08 03:31 | 42.93814 | -122.17329 | 37917 ft | 457 kts | 340° |
| 2026-05-08 03:31 | 42.99731 | -122.20100 | 38095 ft | 446 kts | 339° |
| 2026-05-08 03:32 | 43.02658 | -122.21478 | 38109 ft | 445 kts | 339° |
| 2026-05-08 03:32 | 43.08508 | -122.24229 | 38117 ft | 444 kts | 339° |
| 2026-05-08 03:33 | 43.14345 | -122.26983 | 38120 ft | 444 kts | 339° |
| 2026-05-08 03:33 | 43.20184 | -122.29741 | 38121 ft | 444 kts | 339° |
| 2026-05-08 03:34 | 43.26037 | -122.32508 | 38125 ft | 444 kts | 339° |
| 2026-05-08 03:34 | 43.31844 | -122.35260 | 38125 ft | 444 kts | 339° |
| 2026-05-08 03:35 | 43.37699 | -122.38040 | 38128 ft | 444 kts | 339° |
| 2026-05-08 03:35 | 43.43266 | -122.40687 | 37971 ft | 444 kts | 339° |
| 2026-05-08 03:35 | 43.46174 | -122.42074 | 37702 ft | 441 kts | 339° |
| 2026-05-08 03:36 | 43.49070 | -122.43457 | 37429 ft | 439 kts | 339° |
| 2026-05-08 03:36 | 43.51952 | -122.44835 | 37140 ft | 437 kts | 339° |
| 2026-05-08 03:36 | 43.54824 | -122.46211 | 36754 ft | 437 kts | 339° |
| 2026-05-08 03:36 | 43.57692 | -122.47586 | 36213 ft | 437 kts | 339° |
| 2026-05-08 03:37 | 43.60572 | -122.48968 | 35640 ft | 438 kts | 339° |
| 2026-05-08 03:37 | 43.63453 | -122.50352 | 35041 ft | 439 kts | 339° |
| 2026-05-08 03:37 | 43.66340 | -122.51740 | 34460 ft | 440 kts | 339° |
| 2026-05-08 03:37 | 43.69242 | -122.53136 | 33835 ft | 441 kts | 339° |
| 2026-05-08 03:38 | 43.72144 | -122.54533 | 33187 ft | 442 kts | 339° |
| 2026-05-08 03:38 | 43.75050 | -122.55933 | 32553 ft | 442 kts | 339° |
| 2026-05-08 03:38 | 43.77962 | -122.57338 | 31926 ft | 444 kts | 339° |
| 2026-05-08 03:38 | 43.80880 | -122.58747 | 31284 ft | 445 kts | 339° |
| 2026-05-08 03:39 | 43.83810 | -122.60164 | 30644 ft | 446 kts | 339° |
| 2026-05-08 03:39 | 43.86746 | -122.61585 | 29958 ft | 448 kts | 339° |
| 2026-05-08 03:39 | 43.89692 | -122.63012 | 29210 ft | 449 kts | 338° |
| 2026-05-08 03:39 | 43.92647 | -122.64446 | 28480 ft | 450 kts | 338° |
| 2026-05-08 03:40 | 43.95609 | -122.65883 | 27761 ft | 451 kts | 338° |
| 2026-05-08 03:40 | 43.98565 | -122.67319 | 27210 ft | 448 kts | 338° |
| 2026-05-08 03:40 | 44.01493 | -122.68743 | 26692 ft | 445 kts | 338° |
| 2026-05-08 03:40 | 44.04403 | -122.70162 | 26190 ft | 441 kts | 338° |
| 2026-05-08 03:41 | 44.07290 | -122.71570 | 25712 ft | 437 kts | 338° |
| 2026-05-08 03:41 | 44.10149 | -122.72967 | 25251 ft | 434 kts | 338° |
| 2026-05-08 03:41 | 44.13008 | -122.74125 | 24796 ft | 433 kts | 344° |
| 2026-05-08 03:41 | 44.15987 | -122.74781 | 24330 ft | 434 kts | 351° |
| 2026-05-08 03:42 | 44.19005 | -122.74912 | 23854 ft | 435 kts | 358° |
| 2026-05-08 03:42 | 44.22025 | -122.74685 | 23325 ft | 434 kts | 0° |
| 2026-05-08 03:42 | 44.25047 | -122.74381 | 22821 ft | 431 kts | 1° |
| 2026-05-08 03:42 | 44.28041 | -122.74066 | 22360 ft | 427 kts | 1° |
| 2026-05-08 03:43 | 44.30987 | -122.73760 | 21910 ft | 423 kts | 0° |
| 2026-05-08 03:43 | 44.33911 | -122.73462 | 21463 ft | 419 kts | 0° |
| 2026-05-08 03:43 | 44.36805 | -122.73171 | 21049 ft | 416 kts | 0° |
| 2026-05-08 03:43 | 44.39677 | -122.72883 | 20618 ft | 412 kts | 0° |
| 2026-05-08 03:44 | 44.42535 | -122.72600 | 20185 ft | 409 kts | 0° |
| 2026-05-08 03:44 | 44.45366 | -122.72320 | 19755 ft | 407 kts | 0° |
| 2026-05-08 03:44 | 44.48180 | -122.72042 | 19319 ft | 405 kts | 0° |
| 2026-05-08 03:44 | 44.50983 | -122.71764 | 18880 ft | 402 kts | 360° |
| 2026-05-08 03:45 | 44.53768 | -122.71488 | 18460 ft | 400 kts | 360° |
| 2026-05-08 03:45 | 44.56537 | -122.71213 | 17975 ft | 398 kts | 360° |
| 2026-05-08 03:45 | 44.59292 | -122.70939 | 17523 ft | 395 kts | 0° |
| 2026-05-08 03:45 | 44.62026 | -122.70664 | 17072 ft | 392 kts | 0° |
| 2026-05-08 03:46 | 44.64735 | -122.70393 | 16630 ft | 390 kts | 0° |
| 2026-05-08 03:46 | 44.67435 | -122.70122 | 16200 ft | 387 kts | 0° |
| 2026-05-08 03:46 | 44.70113 | -122.69853 | 15783 ft | 385 kts | 0° |
| 2026-05-08 03:46 | 44.72769 | -122.69586 | 15360 ft | 382 kts | 0° |
| 2026-05-08 03:47 | 44.75379 | -122.69324 | 14947 ft | 380 kts | 0° |
| 2026-05-08 03:47 | 44.78014 | -122.69058 | 14520 ft | 378 kts | 0° |
| 2026-05-08 03:47 | 44.80633 | -122.68794 | 14094 ft | 376 kts | 0° |
| 2026-05-08 03:47 | 44.83238 | -122.68532 | 13643 ft | 374 kts | 0° |
| 2026-05-08 03:48 | 44.85867 | -122.68267 | 13179 ft | 372 kts | 0° |
| 2026-05-08 03:48 | 44.88409 | -122.68011 | 12725 ft | 370 kts | 0° |
| 2026-05-08 03:48 | 44.90968 | -122.67754 | 12285 ft | 367 kts | 0° |
| 2026-05-08 03:48 | 44.93515 | -122.67497 | 11862 ft | 364 kts | 0° |
| 2026-05-08 03:49 | 44.96033 | -122.67244 | 11433 ft | 362 kts | 0° |
| 2026-05-08 03:49 | 44.98539 | -122.66991 | 11014 ft | 359 kts | 0° |
| 2026-05-08 03:49 | 45.00993 | -122.66738 | 10822 ft | 347 kts | 0° |
| 2026-05-08 03:49 | 45.03328 | -122.66493 | 10595 ft | 324 kts | 0° |
| 2026-05-08 03:50 | 45.05495 | -122.66267 | 10626 ft | 303 kts | 360° |
| 2026-05-08 03:50 | 45.07554 | -122.66057 | 10491 ft | 291 kts | 360° |
| 2026-05-08 03:50 | 45.09538 | -122.65859 | 10368 ft | 282 kts | 359° |
| 2026-05-08 03:50 | 45.11472 | -122.65665 | 10262 ft | 276 kts | 359° |
| 2026-05-08 03:51 | 45.13380 | -122.65475 | 10175 ft | 273 kts | 359° |
| 2026-05-08 03:51 | 45.15270 | -122.65285 | 10089 ft | 271 kts | 359° |
| 2026-05-08 03:51 | 45.17151 | -122.65096 | 9907 ft | 271 kts | 359° |
| 2026-05-08 03:51 | 45.19037 | -122.64906 | 9547 ft | 272 kts | 360° |
| 2026-05-08 03:52 | 45.20921 | -122.64714 | 9223 ft | 271 kts | 360° |
| 2026-05-08 03:52 | 45.22801 | -122.64522 | 8938 ft | 270 kts | 360° |
| 2026-05-08 03:52 | 45.24663 | -122.64112 | 8622 ft | 273 kts | 13° |
| 2026-05-08 03:52 | 45.26415 | -122.63034 | 8333 ft | 276 kts | 26° |
| 2026-05-08 03:53 | 45.28053 | -122.61606 | 8054 ft | 276 kts | 29° |
| 2026-05-08 03:53 | 45.29651 | -122.60138 | 7768 ft | 275 kts | 30° |
| 2026-05-08 03:53 | 45.31256 | -122.58658 | 7479 ft | 274 kts | 29° |
| 2026-05-08 03:53 | 45.32861 | -122.57197 | 7213 ft | 274 kts | 29° |
| 2026-05-08 03:54 | 45.34466 | -122.55745 | 6945 ft | 273 kts | 29° |
| 2026-05-08 03:54 | 45.36071 | -122.54298 | 6648 ft | 273 kts | 29° |
| 2026-05-08 03:54 | 45.37671 | -122.52857 | 6354 ft | 272 kts | 29° |
| 2026-05-08 03:54 | 45.39267 | -122.51421 | 6062 ft | 271 kts | 30° |
| 2026-05-08 03:55 | 45.40886 | -122.49964 | 5924 ft | 280 kts | 30° |
| 2026-05-08 03:55 | 45.42499 | -122.48366 | 5931 ft | 286 kts | 43° |
| 2026-05-08 03:55 | 45.43492 | -122.45921 | 5908 ft | 291 kts | 77° |
| 2026-05-08 03:55 | 45.43445 | -122.43059 | 5632 ft | 291 kts | 110° |
| 2026-05-08 03:56 | 45.42529 | -122.40539 | 5355 ft | 283 kts | 123° |
| 2026-05-08 03:56 | 45.41510 | -122.38169 | 5151 ft | 275 kts | 122° |
| 2026-05-08 03:56 | 45.40574 | -122.35835 | 4918 ft | 267 kts | 120° |
| 2026-05-08 03:56 | 45.39711 | -122.33557 | 4649 ft | 255 kts | 119° |
| 2026-05-08 03:57 | 45.38902 | -122.31380 | 4415 ft | 242 kts | 119° |
| 2026-05-08 03:57 | 45.38135 | -122.29308 | 4169 ft | 231 kts | 119° |
| 2026-05-08 03:57 | 45.37392 | -122.27299 | 4029 ft | 228 kts | 118° |
| 2026-05-08 03:57 | 45.36896 | -122.25162 | 4058 ft | 230 kts | 91° |
| 2026-05-08 03:58 | 45.37249 | -122.22971 | 4042 ft | 229 kts | 57° |
| 2026-05-08 03:58 | 45.38370 | -122.21427 | 4014 ft | 226 kts | 23° |
| 2026-05-08 03:58 | 45.39862 | -122.21031 | 4041 ft | 222 kts | 350° |
| 2026-05-08 03:58 | 45.41293 | -122.21800 | 4086 ft | 221 kts | 329° |
| 2026-05-08 03:59 | 45.42616 | -122.22966 | 4061 ft | 220 kts | 325° |
| 2026-05-08 03:59 | 45.43878 | -122.24152 | 4037 ft | 220 kts | 324° |
| 2026-05-08 03:59 | 45.45150 | -122.25367 | 4010 ft | 220 kts | 324° |
| 2026-05-08 03:59 | 45.46422 | -122.26584 | 4011 ft | 220 kts | 324° |
| 2026-05-08 04:00 | 45.47690 | -122.27801 | 4012 ft | 220 kts | 324° |
| 2026-05-08 04:00 | 45.48877 | -122.29155 | 3992 ft | 218 kts | 308° |
| 2026-05-08 04:00 | 45.49410 | -122.31144 | 3998 ft | 217 kts | 275° |
| 2026-05-08 04:00 | 45.49379 | -122.33296 | 4036 ft | 216 kts | 266° |
| 2026-05-08 04:01 | 45.49430 | -122.35358 | 3998 ft | 200 kts | 280° |
| 2026-05-08 04:01 | 45.49828 | -122.37145 | 3973 ft | 178 kts | 292° |
| 2026-05-08 04:01 | 45.50368 | -122.38669 | 3979 ft | 170 kts | 298° |
| 2026-05-08 04:01 | 45.50958 | -122.40137 | 3721 ft | 171 kts | 299° |
| 2026-05-08 04:02 | 45.51560 | -122.41631 | 3202 ft | 175 kts | 299° |
| 2026-05-08 04:02 | 45.52163 | -122.43162 | 2677 ft | 178 kts | 298° |
| 2026-05-08 04:02 | 45.52764 | -122.44709 | 2196 ft | 177 kts | 298° |
| 2026-05-08 04:02 | 45.53337 | -122.46197 | 1938 ft | 164 kts | 298° |
| 2026-05-08 04:03 | 45.53871 | -122.47584 | 1703 ft | 157 kts | 298° |
| 2026-05-08 04:03 | 45.54927 | -122.50321 | 1313 ft | 158 kts | 298° |
| 2026-05-08 04:03 | 45.55457 | -122.51693 | 1106 ft | 158 kts | 298° |
| 2026-05-08 04:04 | 45.55989 | -122.53070 | 905 ft | 158 kts | 299° |
| 2026-05-08 04:04 | 45.56520 | -122.54441 | 686 ft | 155 kts | 299° |
| 2026-05-08 04:04 | 45.57038 | -122.55777 | 465 ft | 153 kts | 299° |
| 2026-05-08 04:04 | 45.57554 | -122.57107 | 279 ft | 153 kts | 300° |
| 2026-05-08 04:05 | 45.58067 | -122.58425 | 87 ft | 152 kts | 300° |
| 2026-05-08 04:05 | 45.58522 | -122.59594 | 38 ft | 106 kts | 299° |
| 2026-05-08 04:05 | 45.58755 | -122.60183 | 37 ft | 32 kts | 299° |
| 2026-05-08 04:05 | 45.58861 | -122.60437 | 35 ft | 21 kts | 312° |
| 2026-05-08 04:06 | 45.58915 | -122.60469 | 36 ft | 6 kts | 5° |
| 2026-05-08 04:06 | 45.58960 | -122.60437 | 34 ft | 9 kts | 37° |
| 2026-05-08 04:06 | 45.58977 | -122.60417 | 36 ft | 1 kts | 41° |
| 2026-05-08 04:06 | 45.58979 | -122.60413 | 36 ft | 0 kts | 42° |
| 2026-05-08 04:07 | 45.58987 | -122.60403 | 37 ft | 3 kts | 42° |
| 2026-05-08 04:07 | 45.59011 | -122.60372 | 37 ft | 6 kts | 43° |
| 2026-05-08 04:07 | 45.59036 | -122.60338 | 36 ft | 9 kts | 44° |
| 2026-05-08 04:07 | 45.59088 | -122.60261 | 34 ft | 12 kts | 46° |
| 2026-05-08 04:08 | 45.59123 | -122.60207 | 36 ft | 9 kts | 52° |
| 2026-05-08 04:08 | 45.59136 | -122.60149 | 36 ft | 4 kts | 85° |
| 2026-05-08 04:08 | 45.59139 | -122.60093 | 36 ft | 8 kts | 88° |
| 2026-05-08 04:08 | 45.59141 | -122.59998 | 37 ft | 11 kts | 88° |
| 2026-05-08 04:09 | 45.59148 | -122.59872 | 37 ft | 11 kts | 86° |
| 2026-05-08 04:09 | 45.59152 | -122.59772 | 38 ft | 6 kts | 86° |
| 2026-05-08 04:09 | 45.59153 | -122.59739 | 38 ft | 1 kts | 86° |
| 2026-05-08 04:09 | 45.59153 | -122.59737 | 38 ft | 0 kts | 86° |